createdAt,value
2023-02-11T00:00:44.804Z,9.45
2023-02-11T00:03:11.934Z,9.85
2023-02-11T00:05:38.990Z,10.43
2023-02-11T00:08:06.112Z,10.00
2023-02-11T00:10:33.233Z,9.53
2023-02-11T00:13:00.280Z,10.35
2023-02-11T00:15:27.228Z,9.68
2023-02-11T00:17:54.316Z,9.95
2023-02-11T00:20:21.258Z,9.82
2023-02-11T00:22:48.323Z,9.53
2023-02-11T00:25:15.394Z,9.18
2023-02-11T00:27:42.409Z,10.10
2023-02-11T00:30:10.890Z,9.40
2023-02-11T00:32:38.710Z,9.75
2023-02-11T00:35:05.995Z,9.73
2023-02-11T00:37:36.530Z,10.13
2023-02-11T00:40:06.946Z,9.30
2023-02-11T00:42:35.744Z,9.13
2023-02-11T00:45:02.870Z,9.32
2023-02-11T00:47:31.345Z,8.17
2023-02-11T00:50:01.049Z,9.02
2023-02-11T00:52:33.994Z,9.45
2023-02-11T00:55:01.115Z,9.02
2023-02-11T00:57:28.169Z,9.63
2023-02-11T00:59:55.335Z,8.30
2023-02-11T01:02:22.624Z,8.93
2023-02-11T01:04:49.704Z,7.53
2023-02-11T02:00:43.817Z,8.02
2023-02-11T02:03:17.939Z,7.07
2023-02-11T02:06:03.428Z,6.50
2023-02-11T02:08:33.088Z,6.15
2023-02-11T02:11:03.160Z,6.28
2023-02-11T02:13:33.520Z,6.00
2023-02-11T02:16:22.434Z,6.23
2023-02-11T02:19:10.514Z,5.63
2023-02-11T02:22:02.081Z,6.28
2023-02-11T02:24:56.913Z,4.72
2023-02-11T02:27:32.733Z,5.40
2023-02-11T02:30:29.818Z,6.27
2023-02-11T02:33:29.235Z,6.05
2023-02-11T02:36:21.419Z,5.47
2023-02-11T02:38:54.242Z,5.75
2023-02-11T02:41:30.121Z,5.50
2023-02-11T02:43:57.533Z,5.77
2023-02-11T02:46:28.418Z,6.07
2023-02-11T02:48:56.975Z,5.75
2023-02-11T02:51:42.843Z,5.85
2023-02-11T02:54:31.250Z,6.07
2023-02-11T02:57:23.536Z,5.70
2023-02-11T03:00:09.124Z,5.90
2023-02-11T03:02:54.406Z,5.75
2023-02-11T03:05:34.377Z,6.18
2023-02-11T03:08:33.534Z,5.05
2023-02-11T03:11:03.570Z,4.80
2023-02-11T03:13:34.239Z,5.80
2023-02-11T03:16:09.000Z,5.00
2023-02-11T03:18:38.950Z,5.40
2023-02-11T03:21:09.535Z,5.75
2023-02-11T03:23:45.027Z,4.97
2023-02-11T03:26:21.714Z,5.38
2023-02-11T03:28:57.011Z,6.65
2023-02-11T03:31:49.955Z,6.38
2023-02-11T03:34:33.599Z,4.85
2023-02-11T03:37:11.998Z,5.50
2023-02-11T03:39:44.613Z,5.45
2023-02-11T03:42:14.688Z,5.07
2023-02-11T03:44:50.221Z,4.82
2023-02-11T03:47:21.489Z,4.75
2023-02-11T03:49:52.090Z,4.87
2023-02-11T03:52:21.834Z,5.10
2023-02-11T03:54:53.706Z,5.30
2023-02-11T03:57:20.838Z,4.47
2023-02-11T03:59:51.687Z,4.90
2023-02-11T04:02:19.473Z,5.23
2023-02-11T04:04:47.401Z,5.38
2023-02-11T04:07:14.405Z,5.43
2023-02-11T04:09:41.503Z,4.50
2023-02-11T04:12:08.541Z,5.65
2023-02-11T04:14:35.822Z,5.23
2023-02-11T04:17:03.478Z,5.45
2023-02-11T04:19:30.623Z,5.45
2023-02-11T04:21:57.867Z,5.93
2023-02-11T04:24:25.250Z,5.03
2023-02-11T04:26:52.752Z,9.43
2023-02-11T04:29:20.267Z,5.75
2023-02-11T04:31:47.701Z,5.57
2023-02-11T04:34:15.254Z,5.22
2023-02-11T04:36:42.383Z,4.88
2023-02-11T04:39:09.515Z,5.10
2023-02-11T04:41:36.541Z,4.55
2023-02-11T04:44:04.150Z,4.95
2023-02-11T04:46:31.234Z,4.95
2023-02-11T04:48:58.418Z,4.82
2023-02-11T04:51:26.064Z,6.17
2023-02-11T04:53:53.160Z,4.88
2023-02-11T04:56:20.150Z,4.53
2023-02-11T04:58:47.167Z,4.75
2023-02-11T05:01:16.460Z,5.20
2023-02-11T05:03:43.796Z,5.13
2023-02-11T05:06:11.624Z,4.78
2023-02-11T05:08:39.394Z,4.95
2023-02-11T05:11:06.449Z,4.53
2023-02-11T05:13:33.729Z,5.32
2023-02-11T05:16:00.760Z,4.03
2023-02-11T05:18:27.899Z,4.40
2023-02-11T05:20:54.911Z,3.92
2023-02-11T05:23:21.920Z,4.45
2023-02-11T05:25:49.366Z,4.43
2023-02-11T05:28:16.569Z,4.37
2023-02-11T05:30:43.880Z,3.90
2023-02-11T05:33:10.991Z,4.40
2023-02-11T05:35:38.068Z,4.28
2023-02-11T05:38:05.023Z,4.18
2023-02-11T05:40:32.525Z,4.10
2023-02-11T05:42:59.590Z,4.30
2023-02-11T05:45:26.704Z,5.63
2023-02-11T05:47:53.765Z,4.65
2023-02-11T05:50:21.135Z,4.70
2023-02-11T05:52:52.270Z,4.27
2023-02-11T05:55:19.555Z,4.00
2023-02-11T05:57:46.567Z,5.60
2023-02-11T06:00:14.353Z,4.63
2023-02-11T06:02:41.463Z,5.47
2023-02-11T06:05:08.849Z,5.07
2023-02-11T06:07:35.977Z,5.10
2023-02-11T06:10:03.086Z,5.15
2023-02-11T06:12:30.312Z,4.93
2023-02-11T06:14:57.339Z,4.82
2023-02-11T06:17:25.565Z,5.37
2023-02-11T06:19:52.645Z,5.70
2023-02-11T06:22:19.598Z,5.55
2023-02-11T06:25:00.943Z,6.53
2023-02-11T06:27:30.873Z,5.15
2023-02-11T06:29:57.918Z,6.17
2023-02-11T06:32:42.733Z,5.25
2023-02-11T06:35:12.079Z,5.82
2023-02-11T06:37:40.147Z,4.90
2023-02-11T06:40:07.496Z,4.97
2023-02-11T06:42:36.336Z,5.27
2023-02-11T06:45:06.269Z,4.50
2023-02-11T06:47:33.645Z,4.78
2023-02-11T06:50:00.690Z,5.05
2023-02-11T06:52:27.679Z,5.13
2023-02-11T06:54:54.660Z,5.77
2023-02-11T06:57:21.684Z,4.90
2023-02-11T06:59:48.825Z,7.40
2023-02-11T07:02:16.280Z,6.53
2023-02-11T07:04:44.192Z,7.32
2023-02-11T07:07:11.164Z,7.13
2023-02-11T07:09:38.217Z,6.85
2023-02-11T07:12:05.314Z,7.13
2023-02-11T07:14:32.380Z,7.43
2023-02-11T07:16:59.440Z,5.95
2023-02-11T07:19:26.583Z,8.27
2023-02-11T07:21:53.611Z,7.50
2023-02-11T07:24:20.738Z,5.72
2023-02-11T07:26:47.669Z,6.15
2023-02-11T07:29:14.618Z,6.25
2023-02-11T07:31:41.751Z,6.77
2023-02-11T07:34:10.861Z,6.75
2023-02-11T07:36:39.525Z,7.95
2023-02-11T07:39:06.533Z,9.55
2023-02-11T07:41:37.694Z,6.30
2023-02-11T07:44:05.650Z,5.93
2023-02-11T07:46:34.717Z,6.25
2023-02-11T07:49:01.978Z,10.38
2023-02-11T07:51:31.083Z,10.43
2023-02-11T07:54:00.163Z,7.45
2023-02-11T07:56:28.653Z,7.40
2023-02-11T07:58:57.031Z,6.53
2023-02-11T08:01:28.349Z,6.40
2023-02-11T08:03:57.950Z,7.03
2023-02-11T08:06:27.521Z,5.80
2023-02-11T08:08:54.890Z,6.90
2023-02-11T08:11:24.747Z,6.38
2023-02-11T08:13:52.739Z,8.63
2023-02-11T08:16:29.343Z,7.75
2023-02-11T08:18:58.567Z,7.10
2023-02-11T08:21:25.674Z,6.97
2023-02-11T08:23:53.003Z,7.90
2023-02-11T08:26:25.904Z,7.72
2023-02-11T08:28:54.295Z,8.18
2023-02-11T08:31:24.490Z,6.90
2023-02-11T08:33:53.465Z,7.47
2023-02-11T08:36:27.330Z,7.15
2023-02-11T08:39:05.615Z,6.38
2023-02-11T08:41:35.973Z,6.63
2023-02-11T08:44:03.199Z,7.75
2023-02-11T08:46:30.471Z,6.90
2023-02-11T08:48:57.588Z,6.70
2023-02-11T08:51:31.732Z,6.80
2023-02-11T08:53:59.910Z,6.40
2023-02-11T08:56:27.482Z,6.55
2023-02-11T08:58:55.126Z,6.27
2023-02-11T09:01:27.717Z,6.13
2023-02-11T09:03:55.254Z,6.30
2023-02-11T09:06:23.299Z,7.40
2023-02-11T09:08:53.201Z,6.57
2023-02-11T09:11:22.621Z,8.27
2023-02-11T09:13:52.562Z,8.50
2023-02-11T09:16:24.322Z,7.78
2023-02-11T09:18:51.681Z,7.18
2023-02-11T09:21:20.310Z,7.78
2023-02-11T09:23:48.176Z,7.00
2023-02-11T09:26:33.304Z,6.43
2023-02-11T09:29:01.378Z,6.93
2023-02-11T09:31:30.762Z,6.45
2023-02-11T09:34:00.688Z,5.78
2023-02-11T09:36:30.129Z,6.07
2023-02-11T09:38:59.729Z,6.13
2023-02-11T09:41:39.439Z,6.18
2023-02-11T09:44:09.706Z,6.22
2023-02-11T09:46:42.711Z,6.10
2023-02-11T09:49:20.095Z,6.83
2023-02-11T09:51:56.548Z,5.60
2023-02-11T09:54:55.003Z,6.43
2023-02-11T09:57:28.805Z,5.38
2023-02-11T09:59:57.819Z,5.28
2023-02-11T10:02:38.153Z,6.67
2023-02-11T10:05:16.773Z,6.18
2023-02-11T10:07:54.605Z,6.38
2023-02-11T10:10:30.811Z,5.60
2023-02-11T10:13:00.773Z,7.05
2023-02-11T10:15:45.232Z,6.63
2023-02-11T10:18:30.900Z,6.00
2023-02-11T10:21:08.971Z,7.22
2023-02-11T10:23:41.563Z,7.53
2023-02-11T10:26:19.445Z,6.40
2023-02-11T10:28:49.927Z,6.30
2023-02-11T10:31:22.828Z,6.68
2023-02-11T10:34:02.220Z,7.30
2023-02-11T10:36:34.216Z,7.25
2023-02-11T10:39:14.816Z,7.63
2023-02-11T10:41:48.248Z,6.40
2023-02-11T10:44:27.825Z,6.18
2023-02-11T10:46:56.647Z,6.88
2023-02-11T10:49:37.715Z,6.63
2023-02-11T10:52:24.726Z,6.85
2023-02-11T10:55:23.248Z,6.67
2023-02-11T10:57:55.835Z,7.07
2023-02-11T11:00:43.433Z,5.90
2023-02-11T11:03:22.338Z,7.47
2023-02-11T11:05:58.734Z,7.10
2023-02-11T11:08:47.791Z,7.43
2023-02-11T11:11:18.113Z,6.97
2023-02-11T11:13:54.127Z,6.43
2023-02-11T11:16:28.806Z,7.28
2023-02-11T11:19:08.116Z,8.13
2023-02-11T11:21:44.328Z,7.90
2023-02-11T11:24:19.201Z,7.38
2023-02-11T11:26:53.058Z,7.30
2023-02-11T11:29:31.078Z,7.40
2023-02-11T11:32:05.515Z,8.05
2023-02-11T11:34:34.917Z,7.10
2023-02-11T11:37:11.561Z,7.53
2023-02-11T11:39:40.132Z,7.00
2023-02-11T11:42:29.641Z,8.00
2023-02-11T11:45:25.970Z,7.10
2023-02-11T11:47:54.785Z,8.27
2023-02-11T11:50:28.024Z,7.70
2023-02-11T11:53:34.452Z,7.72
2023-02-11T11:56:09.425Z,7.50
2023-02-11T11:58:36.639Z,9.13
2023-02-11T12:01:27.276Z,7.37
2023-02-11T12:04:32.910Z,8.30
2023-02-11T12:07:25.953Z,8.43
2023-02-11T12:10:08.029Z,8.20
2023-02-11T12:12:49.310Z,8.35
2023-02-11T12:15:28.779Z,7.13
2023-02-11T12:18:04.864Z,7.93
2023-02-11T12:53:00.373Z,6.53
2023-02-11T12:55:37.231Z,6.23
2023-02-11T12:58:06.593Z,7.00
2023-02-11T13:00:45.650Z,7.93
2023-02-11T13:03:28.867Z,7.55
2023-02-11T13:06:02.505Z,7.78
2023-02-11T13:08:34.121Z,7.97
2023-02-11T13:11:26.116Z,8.15
2023-02-11T13:14:13.129Z,7.40
2023-02-11T13:16:45.244Z,7.55
2023-02-11T13:19:15.545Z,9.20
2023-02-11T13:22:01.310Z,7.63
2023-02-11T13:24:44.447Z,8.35
2023-02-11T13:27:11.471Z,8.05
2023-02-11T13:29:58.460Z,8.98
2023-02-11T13:32:25.433Z,8.45
2023-02-11T13:34:52.409Z,8.57
2023-02-11T13:37:24.010Z,8.30
2023-02-11T13:40:02.921Z,8.65
2023-02-11T13:42:34.698Z,8.80
2023-02-11T13:45:02.140Z,8.23
2023-02-11T13:47:34.075Z,8.40
2023-02-11T13:50:06.502Z,9.00
2023-02-11T13:52:38.786Z,8.88
2023-02-11T13:55:11.854Z,8.55
2023-02-11T13:57:41.151Z,8.82
2023-02-11T14:00:28.613Z,8.90
2023-02-11T14:03:29.427Z,8.55
2023-02-11T14:06:27.506Z,8.45
2023-02-11T14:09:10.296Z,8.95
2023-02-11T14:11:40.978Z,8.65
2023-02-11T14:14:58.058Z,9.00
2023-02-11T14:17:32.431Z,8.60
2023-02-11T14:20:01.752Z,8.38
2023-02-11T14:22:51.284Z,7.22
2023-02-11T14:25:24.991Z,8.00
2023-02-11T14:28:18.010Z,8.73
2023-02-11T14:31:36.224Z,7.88
2023-02-11T14:34:33.882Z,8.77
2023-02-11T14:37:04.051Z,7.90
2023-02-11T14:39:52.789Z,8.60
2023-02-11T14:42:22.682Z,8.47
2023-02-11T14:44:51.607Z,6.88
2023-02-11T14:47:29.962Z,9.27
2023-02-11T14:49:57.132Z,9.50
2023-02-11T14:52:31.706Z,10.38
2023-02-11T14:55:29.301Z,9.60
2023-02-11T14:58:30.933Z,7.43
2023-02-11T15:01:06.713Z,8.60
2023-02-11T15:03:42.755Z,9.88
2023-02-11T15:06:20.898Z,9.07
2023-02-11T15:09:01.056Z,8.90
2023-02-11T15:11:32.361Z,9.80
2023-02-11T15:14:08.180Z,9.23
2023-02-11T15:16:40.513Z,8.95
2023-02-11T15:19:08.063Z,9.00
2023-02-11T15:21:36.421Z,8.30
2023-02-11T15:24:07.181Z,9.73
2023-02-11T15:26:34.532Z,9.73
2023-02-11T15:29:01.659Z,8.95
2023-02-11T15:31:29.846Z,8.55
2023-02-11T15:34:07.862Z,8.43
2023-02-11T15:36:36.464Z,9.82
2023-02-11T15:39:32.797Z,8.45
2023-02-11T15:42:26.169Z,9.00
2023-02-11T15:45:16.328Z,7.10
2023-02-11T15:47:49.977Z,9.00
2023-02-11T15:50:22.843Z,8.43
2023-02-11T15:52:50.962Z,8.63
2023-02-11T15:55:19.023Z,8.32
2023-02-11T15:57:50.055Z,8.25
2023-02-11T16:00:21.297Z,8.67
2023-02-11T16:02:50.948Z,8.43
2023-02-11T16:05:29.399Z,7.45
2023-02-11T16:07:57.384Z,6.75
2023-02-11T16:10:24.403Z,8.88
2023-02-11T16:12:57.153Z,7.87
2023-02-11T16:16:12.846Z,7.72
2023-02-11T16:19:02.021Z,7.43
2023-02-11T16:21:39.969Z,8.63
2023-02-11T16:24:24.982Z,7.80
2023-02-11T16:26:55.713Z,7.77
2023-02-11T16:29:26.191Z,8.38
2023-02-11T16:32:04.496Z,8.30
2023-02-11T16:34:31.657Z,8.43
2023-02-11T16:36:58.666Z,7.95
2023-02-11T16:39:25.600Z,9.07
2023-02-11T16:41:52.686Z,8.52
2023-02-11T16:44:19.708Z,8.60
2023-02-11T16:46:46.799Z,8.07
2023-02-11T16:49:23.265Z,8.38
2023-02-11T16:51:52.773Z,8.63
2023-02-11T16:54:20.553Z,7.78
2023-02-11T16:56:47.601Z,9.00
2023-02-11T16:59:14.932Z,8.40
2023-02-11T17:01:43.387Z,7.90
2023-02-11T17:04:24.180Z,7.40
2023-02-11T17:06:51.522Z,7.78
2023-02-11T17:09:24.128Z,6.40
2023-02-11T17:11:51.471Z,7.55
2023-02-11T17:14:19.945Z,7.30
2023-02-11T17:16:48.014Z,7.40
2023-02-11T17:19:21.103Z,7.25
2023-02-11T17:21:50.426Z,7.63
2023-02-11T17:24:18.122Z,7.80
2023-02-11T17:26:46.305Z,6.03
2023-02-11T17:29:16.506Z,6.63
2023-02-11T17:31:43.689Z,7.88
2023-02-11T17:34:11.602Z,7.78
2023-02-11T17:36:41.411Z,8.55
2023-02-11T17:39:08.902Z,8.38
2023-02-11T17:41:39.872Z,7.80
2023-02-11T17:44:08.223Z,6.95
2023-02-11T17:46:36.376Z,8.30
2023-02-11T17:49:07.609Z,6.18
2023-02-11T17:51:37.012Z,7.82
2023-02-11T17:54:11.046Z,8.13
2023-02-11T17:56:38.341Z,7.97
2023-02-11T17:59:07.534Z,8.23
2023-02-11T18:01:36.202Z,7.63
2023-02-11T18:04:04.735Z,8.10
2023-02-11T18:06:33.958Z,7.30
2023-02-11T18:09:04.534Z,7.97
2023-02-11T18:11:33.490Z,8.57
2023-02-11T18:14:02.130Z,7.85
2023-02-11T18:16:30.597Z,7.97
2023-02-11T18:18:58.696Z,7.77
2023-02-11T18:21:26.116Z,8.38
2023-02-11T18:23:53.365Z,8.18
2023-02-11T18:26:22.064Z,7.88
2023-02-11T18:28:49.185Z,7.82
2023-02-11T18:31:17.363Z,8.37
2023-02-11T18:33:45.036Z,8.07
2023-02-11T18:36:14.971Z,7.25
2023-02-11T18:38:44.547Z,7.85
2023-02-11T18:41:12.218Z,7.55
2023-02-11T18:43:40.248Z,8.80
2023-02-11T18:46:13.445Z,7.22
2023-02-11T18:48:43.514Z,7.60
2023-02-11T18:51:13.649Z,7.93
2023-02-11T18:53:40.779Z,7.70
2023-02-11T18:56:20.545Z,8.27
2023-02-11T18:58:48.497Z,9.05
2023-02-11T19:01:24.535Z,7.13
2023-02-11T19:03:51.927Z,6.93
2023-02-11T19:06:28.136Z,7.43
2023-02-11T19:08:59.728Z,8.00
2023-02-11T19:11:47.148Z,6.93
2023-02-11T19:14:22.598Z,8.20
2023-02-11T19:16:51.728Z,9.00
2023-02-11T19:19:19.245Z,7.80
2023-02-11T19:21:47.681Z,6.47
2023-02-11T19:24:18.981Z,8.32
2023-02-11T19:26:47.198Z,8.05
2023-02-11T19:29:14.842Z,8.50
2023-02-11T19:31:42.044Z,7.13
2023-02-11T19:34:11.325Z,8.63
2023-02-11T19:36:38.363Z,6.95
2023-02-11T19:39:06.803Z,7.85
2023-02-11T19:41:34.579Z,7.82
2023-02-11T19:44:02.688Z,7.78
2023-02-11T19:46:32.444Z,7.40
2023-02-11T19:49:00.781Z,7.55
2023-02-11T19:51:28.485Z,7.35
2023-02-11T19:53:55.955Z,7.93
2023-02-11T19:56:23.265Z,8.13
2023-02-11T19:58:50.360Z,12.70
2023-02-11T20:01:22.630Z,8.75
2023-02-11T20:03:51.073Z,7.53
2023-02-11T20:06:23.510Z,8.02
2023-02-11T20:08:59.607Z,7.43
2023-02-11T20:11:28.878Z,8.23
2023-02-11T20:13:56.719Z,8.05
2023-02-11T20:16:40.668Z,8.25
2023-02-11T20:19:18.125Z,6.82
2023-02-11T20:21:48.872Z,7.00
2023-02-11T20:24:17.857Z,8.03
2023-02-11T20:26:45.954Z,7.07
2023-02-11T20:29:13.026Z,7.70
2023-02-11T20:31:40.314Z,7.35
2023-02-11T20:34:07.561Z,7.80
2023-02-11T20:36:35.892Z,7.90
2023-02-11T20:39:05.032Z,7.38
2023-02-11T20:41:34.944Z,7.30
2023-02-11T20:44:05.101Z,7.63
2023-02-11T20:46:34.549Z,7.20
2023-02-11T20:49:02.135Z,7.03
2023-02-11T20:51:34.910Z,7.78
2023-02-11T20:54:01.958Z,7.95
2023-02-11T20:56:32.409Z,6.72
2023-02-11T20:59:01.052Z,7.28
2023-02-11T21:01:43.437Z,7.60
2023-02-11T21:04:13.661Z,7.00
2023-02-11T21:06:47.305Z,7.03
2023-02-11T21:09:17.487Z,7.05
2023-02-11T21:11:44.815Z,7.43
2023-02-11T21:14:13.248Z,6.67
2023-02-11T21:16:40.924Z,6.45
2023-02-11T21:19:08.014Z,7.38
2023-02-11T21:21:36.819Z,7.28
2023-02-11T21:24:04.895Z,7.78
2023-02-11T21:26:32.352Z,7.60
2023-02-11T21:28:59.329Z,7.47
2023-02-11T21:31:30.876Z,6.50
2023-02-11T21:33:59.745Z,7.00
2023-02-11T21:36:28.562Z,6.95
2023-02-11T21:38:55.655Z,6.53
2023-02-11T21:41:23.300Z,6.95
2023-02-11T21:43:51.585Z,6.35
2023-02-11T21:46:19.744Z,6.32
2023-02-11T21:48:47.324Z,6.68
2023-02-11T21:51:17.771Z,7.13
2023-02-11T21:53:44.881Z,7.15
2023-02-11T21:56:18.035Z,6.95
2023-02-11T21:58:45.939Z,6.82
2023-02-11T22:01:18.950Z,6.75
2023-02-11T22:03:46.541Z,7.07
2023-02-11T22:06:21.601Z,7.18
2023-02-11T22:08:50.266Z,6.07
2023-02-11T22:11:17.580Z,6.53
2023-02-11T22:13:44.767Z,6.90
2023-02-11T22:16:14.784Z,7.33
2023-02-11T22:18:44.684Z,7.00
2023-02-11T22:21:17.180Z,7.10
2023-02-11T22:23:44.615Z,6.93
2023-02-11T22:26:18.246Z,7.13
2023-02-11T22:28:46.260Z,7.50
2023-02-11T22:31:16.588Z,7.38
2023-02-11T22:33:43.686Z,6.45
2023-02-11T22:36:19.972Z,7.07
2023-02-11T22:38:47.597Z,7.10
2023-02-11T22:41:16.375Z,7.73
2023-02-11T22:43:44.287Z,6.78
2023-02-11T22:46:14.554Z,7.18
2023-02-11T22:48:41.913Z,7.28
2023-02-11T22:51:19.495Z,7.38
2023-02-11T22:53:51.331Z,6.40
2023-02-11T22:56:18.589Z,6.80
2023-02-11T22:58:45.704Z,7.38
2023-02-11T23:01:13.304Z,7.72
2023-02-11T23:03:40.705Z,7.00
2023-02-11T23:06:07.848Z,7.10
2023-02-11T23:08:35.610Z,7.00
2023-02-11T23:11:11.998Z,6.82
2023-02-11T23:13:41.177Z,7.60
2023-02-11T23:16:14.901Z,7.80
2023-02-11T23:18:43.685Z,6.73
2023-02-11T23:21:17.844Z,6.00
2023-02-11T23:23:45.544Z,7.28
2023-02-11T23:26:14.976Z,6.43
2023-02-11T23:28:45.235Z,6.65
2023-02-11T23:31:20.737Z,5.90
2023-02-11T23:33:48.797Z,6.82
2023-02-11T23:36:16.659Z,7.70
2023-02-11T23:38:44.563Z,7.07
2023-02-11T23:41:12.228Z,6.93
2023-02-11T23:43:39.691Z,6.83
2023-02-11T23:46:08.122Z,7.68
2023-02-11T23:48:36.706Z,6.93
2023-02-11T23:51:04.826Z,6.97
2023-02-11T23:53:32.254Z,7.13
2023-02-11T23:55:59.409Z,6.77
2023-02-11T23:58:26.369Z,6.55
